Agnew, NE

3:23 AM CDT on August 30, 2015 (GMT -0500)
Raymond, NE | | Change Station
CLOSE
Current Station
Personal Weather Station
Location: Raymond, NE
Elevation: 1309 ft
Nearby Weather Stations

Elev 1309 ft 40.98 °N, 96.78 °W | Updated 3 minutes ago

Overcast
Overcast
61.4 °F
Feels Like 61.4 °F
N
2.0
Wind Variable Wind from WSW
Gusts 5.0 mph

Today
High -- | Low -- °F
--% Chance of Precip.
Yesterday
High -- | Low -- °F
Precip. -- in
6:51 AM 8:03 PM
Full, 100% visible
Pressure 30.03 in
Visibility 4.0 miles
Clouds Overcast 400 ft
Dew Point 61 °F
Humidity 98%
Rainfall 0.00 in
Snow Depth Not available.
UV 0 out of 12
Pollen 9.70 out of 12
Air Quality Not available.
Flu Activity Not available.
METAR KLNK 300754Z AUTO 19005KT 4SM BR OVC004 17/16 A3005 RMK AO2 SLP167 T01670161
Pressure 30.03 in
Visibility 4.0 miles
Clouds Overcast 400 ft
Dew Point 61 °F
Humidity 98%
Rainfall 0.00 in
Snow Depth Not available.
UV 0 out of 12
Pollen 9.70 out of 12
Air Quality Not available.
Flu Activity Not available.
METAR KLNK 300754Z AUTO 19005KT 4SM BR OVC004 17/16 A3005 RMK AO2 SLP167 T01670161

10-Day Weather Forecast

×

Almanac

Astronomy

Aug. 30, 2015 Rise Set
Actual Time
Civil Twilight
Nautical Twilight
Astronomical Twilight
Moon
Length of Visible Light
Length of Day
Tomorrow will be .
, % of the Moon is Illuminated

Today's Extremes

State Highs State Lows

Community

WunderPhotos

Upload Photos

1,850,909 photos uploaded!

WunderBlogs® & News

Nearby

Air Quality

  Air Quality AQ Index Pollutant
Not available.

Snow Depth

Station Depth Elevation

Earthquake Activity

City Distance Mag. Time & Date
Minimum magnitude displayed is 2.5.

Coastal Water Temperatures

Place Temperature

Stations

Nearby Weather Stations

Station Location Temp. Windchill Dew Point Humidity Wind Precip. Elev Updated Type